Accueil
METAR-TAF:

METAR-TAF

Aéroports :

Udon Thani, Thaïlande

latitude: 17-23N, longitude: 102-48E, altitude: 177 m

Observation

Le bulletin a été fait il y a 47 minutes, à 01:00 UTC
Vent 1 kt de est
Température 21°C
Humidité 69%
Pression 1023 hPa
Visibilité 10 km ou plus
pas de nuages en-dessous de 1500 mètres et pas de cumulonimbus.

METAR: VTUD 220100Z 09001KT CAVOK 21/15 Q1023 NOSIG

Heure: 08:47 (01:47 UTC)

Prévision

Le bulletin a été fait il y a 2 heures et 47 minutes, à 23:00 UTC
Prévision valable du 22 à 00 UTC au 22 à 24 UTC
Vent 8 kt de est/nord-est
Visibilité: 9000 m

TAF: VTUD 212300Z 2200/2224 07008KT 9000 NSC

Observations et prévisions météorologiques de plus de 4000 aéroports (messages METAR et TAF).

Les stations disponibles sont représentées par des disques jaunes et rouges sur la carte.

Passer la souris dessus pour voir le nom de la station.

Cliquer dessus pour voir les observations et prévisions météorologiques.

Pour changer de carte: cliquez sur les boutons verts avec une croix noire pour zoomer, sur le bouton vert avec un tiret pour effectuer un zoom arrière, ou sur les flèches vertes pour les cartes adjacentes.


METAR-TAF: